Terminal Aerodrome Forecast
Issued by NWS Cleveland, OH

Home | Current Version | Previous Version | Text Only | Print | Product List | Glossary On
Versions: 1 2 3 4 5 6 7 8 9 10 11 12 13 14 15 16 17 18 19 20 21 22 23 24 25 26 27 28
000
FTUS41 KCLE 181735
TAFCLE
TAF
KCLE 181735Z 1818/1924 22011KT 6SM BR OVC008
      TEMPO 1819/1823 5SM BR OVC012
     FM190300 22012G18KT P6SM OVC012
     FM191200 22015G25KT P6SM OVC025=

USA.gov is the U.S. government's official web portal to all federal, state and local government web resources and services.